sensor_id;sensor_type;location;lat;lon;timestamp;P1;durP1;ratioP1;P2;durP2;ratioP2
43048;SDS011;28673;44.412;11.918;2023-07-31T00:00:17;4.18;;;2.30;;
43048;SDS011;28673;44.412;11.918;2023-07-31T00:02:43;7.35;;;2.30;;
43048;SDS011;28673;44.412;11.918;2023-07-31T00:05:09;3.33;;;2.33;;
43048;SDS011;28673;44.412;11.918;2023-07-31T00:07:35;6.20;;;2.17;;
43048;SDS011;28673;44.412;11.918;2023-07-31T00:10:01;6.32;;;2.80;;
43048;SDS011;28673;44.412;11.918;2023-07-31T00:12:27;5.25;;;2.75;;
43048;SDS011;28673;44.412;11.918;2023-07-31T00:14:53;4.13;;;3.03;;
43048;SDS011;28673;44.412;11.918;2023-07-31T00:17:19;5.53;;;3.00;;
43048;SDS011;28673;44.412;11.918;2023-07-31T00:19:45;6.20;;;2.70;;
43048;SDS011;28673;44.412;11.918;2023-07-31T00:22:15;13.85;;;2.72;;
43048;SDS011;28673;44.412;11.918;2023-07-31T00:24:41;7.10;;;2.42;;
43048;SDS011;28673;44.412;11.918;2023-07-31T00:27:07;3.28;;;2.10;;
43048;SDS011;28673;44.412;11.918;2023-07-31T00:29:33;4.80;;;2.70;;
43048;SDS011;28673;44.412;11.918;2023-07-31T00:31:58;4.38;;;2.38;;
43048;SDS011;28673;44.412;11.918;2023-07-31T00:34:24;3.20;;;2.30;;
43048;SDS011;28673;44.412;11.918;2023-07-31T00:36:50;9.63;;;2.75;;
43048;SDS011;28673;44.412;11.918;2023-07-31T00:39:16;7.45;;;3.00;;
43048;SDS011;28673;44.412;11.918;2023-07-31T00:41:43;5.18;;;2.85;;
43048;SDS011;28673;44.412;11.918;2023-07-31T00:44:09;9.50;;;2.97;;
43048;SDS011;28673;44.412;11.918;2023-07-31T00:46:36;4.85;;;2.65;;
43048;SDS011;28673;44.412;11.918;2023-07-31T00:49:02;4.45;;;2.72;;
43048;SDS011;28673;44.412;11.918;2023-07-31T00:51:29;10.27;;;3.20;;
43048;SDS011;28673;44.412;11.918;2023-07-31T00:53:55;7.88;;;2.65;;
43048;SDS011;28673;44.412;11.918;2023-07-31T00:56:21;4.60;;;2.65;;
43048;SDS011;28673;44.412;11.918;2023-07-31T00:58:48;16.90;;;2.80;;
43048;SDS011;28673;44.412;11.918;2023-07-31T01:01:14;3.67;;;2.30;;
43048;SDS011;28673;44.412;11.918;2023-07-31T01:03:40;8.40;;;2.80;;
43048;SDS011;28673;44.412;11.918;2023-07-31T01:08:42;4.30;;;2.92;;
43048;SDS011;28673;44.412;11.918;2023-07-31T01:13:50;10.88;;;2.88;;
43048;SDS011;28673;44.412;11.918;2023-07-31T01:16:16;3.47;;;2.28;;
43048;SDS011;28673;44.412;11.918;2023-07-31T01:18:42;5.78;;;3.20;;
43048;SDS011;28673;44.412;11.918;2023-07-31T01:26:49;4.25;;;2.75;;
43048;SDS011;28673;44.412;11.918;2023-07-31T01:32:14;4.80;;;2.95;;
43048;SDS011;28673;44.412;11.918;2023-07-31T01:34:48;4.47;;;3.13;;
43048;SDS011;28673;44.412;11.918;2023-07-31T01:37:14;7.45;;;3.13;;
43048;SDS011;28673;44.412;11.918;2023-07-31T01:39:42;3.78;;;2.67;;
43048;SDS011;28673;44.412;11.918;2023-07-31T01:42:10;6.75;;;3.25;;
43048;SDS011;28673;44.412;11.918;2023-07-31T01:44:36;8.23;;;3.85;;
43048;SDS011;28673;44.412;11.918;2023-07-31T01:47:04;6.82;;;3.10;;
43048;SDS011;28673;44.412;11.918;2023-07-31T01:49:31;7.05;;;3.28;;
43048;SDS011;28673;44.412;11.918;2023-07-31T01:51:57;4.13;;;3.10;;
43048;SDS011;28673;44.412;11.918;2023-07-31T01:54:26;8.02;;;2.92;;
43048;SDS011;28673;44.412;11.918;2023-07-31T01:56:52;12.60;;;3.00;;
43048;SDS011;28673;44.412;11.918;2023-07-31T01:59:18;7.57;;;3.08;;
43048;SDS011;28673;44.412;11.918;2023-07-31T02:01:44;9.85;;;3.63;;
43048;SDS011;28673;44.412;11.918;2023-07-31T02:04:10;7.45;;;3.17;;
43048;SDS011;28673;44.412;11.918;2023-07-31T02:06:39;3.67;;;3.25;;
43048;SDS011;28673;44.412;11.918;2023-07-31T02:09:06;7.00;;;3.00;;
43048;SDS011;28673;44.412;11.918;2023-07-31T02:11:31;6.65;;;3.03;;
43048;SDS011;28673;44.412;11.918;2023-07-31T02:13:58;9.05;;;3.05;;
43048;SDS011;28673;44.412;11.918;2023-07-31T02:16:24;7.07;;;3.78;;
43048;SDS011;28673;44.412;11.918;2023-07-31T02:18:50;7.00;;;3.35;;
43048;SDS011;28673;44.412;11.918;2023-07-31T02:21:22;6.82;;;3.28;;
43048;SDS011;28673;44.412;11.918;2023-07-31T02:23:51;5.13;;;2.60;;
43048;SDS011;28673;44.412;11.918;2023-07-31T02:26:19;5.15;;;3.25;;
43048;SDS011;28673;44.412;11.918;2023-07-31T02:28:45;3.45;;;3.15;;
43048;SDS011;28673;44.412;11.918;2023-07-31T02:31:11;4.50;;;2.70;;
43048;SDS011;28673;44.412;11.918;2023-07-31T02:33:39;4.50;;;2.88;;
43048;SDS011;28673;44.412;11.918;2023-07-31T02:36:05;7.25;;;3.15;;
43048;SDS011;28673;44.412;11.918;2023-07-31T02:38:31;3.25;;;2.50;;
43048;SDS011;28673;44.412;11.918;2023-07-31T02:40:57;4.45;;;2.90;;
43048;SDS011;28673;44.412;11.918;2023-07-31T02:43:23;9.52;;;3.03;;
43048;SDS011;28673;44.412;11.918;2023-07-31T02:45:52;5.90;;;2.92;;
43048;SDS011;28673;44.412;11.918;2023-07-31T02:48:18;7.22;;;3.00;;
43048;SDS011;28673;44.412;11.918;2023-07-31T02:50:47;6.13;;;3.70;;
43048;SDS011;28673;44.412;11.918;2023-07-31T02:53:13;6.03;;;3.13;;
43048;SDS011;28673;44.412;11.918;2023-07-31T02:55:40;4.10;;;3.03;;
43048;SDS011;28673;44.412;11.918;2023-07-31T02:58:06;4.00;;;3.10;;
43048;SDS011;28673;44.412;11.918;2023-07-31T03:00:32;4.93;;;3.13;;
43048;SDS011;28673;44.412;11.918;2023-07-31T03:02:58;10.25;;;3.15;;
43048;SDS011;28673;44.412;11.918;2023-07-31T03:05:24;4.75;;;3.47;;
43048;SDS011;28673;44.412;11.918;2023-07-31T03:07:50;3.45;;;3.15;;
43048;SDS011;28673;44.412;11.918;2023-07-31T03:10:16;6.95;;;3.10;;
43048;SDS011;28673;44.412;11.918;2023-07-31T03:12:46;4.10;;;3.00;;
43048;SDS011;28673;44.412;11.918;2023-07-31T03:15:13;8.40;;;2.92;;
43048;SDS011;28673;44.412;11.918;2023-07-31T03:17:39;4.70;;;3.30;;
43048;SDS011;28673;44.412;11.918;2023-07-31T03:20:05;9.63;;;4.15;;
43048;SDS011;28673;44.412;11.918;2023-07-31T03:22:32;5.63;;;3.13;;
43048;SDS011;28673;44.412;11.918;2023-07-31T03:24:58;4.43;;;3.58;;
43048;SDS011;28673;44.412;11.918;2023-07-31T03:27:24;8.98;;;3.70;;
43048;SDS011;28673;44.412;11.918;2023-07-31T03:29:50;8.43;;;3.70;;
43048;SDS011;28673;44.412;11.918;2023-07-31T03:32:17;6.85;;;3.67;;
43048;SDS011;28673;44.412;11.918;2023-07-31T03:34:43;5.03;;;3.33;;
43048;SDS011;28673;44.412;11.918;2023-07-31T03:37:09;7.78;;;3.90;;
43048;SDS011;28673;44.412;11.918;2023-07-31T03:39:38;5.00;;;3.45;;
43048;SDS011;28673;44.412;11.918;2023-07-31T03:42:04;8.55;;;3.97;;
43048;SDS011;28673;44.412;11.918;2023-07-31T03:44:30;7.10;;;3.08;;
43048;SDS011;28673;44.412;11.918;2023-07-31T03:46:56;4.45;;;3.33;;
43048;SDS011;28673;44.412;11.918;2023-07-31T03:49:22;5.00;;;3.70;;
43048;SDS011;28673;44.412;11.918;2023-07-31T03:51:51;6.32;;;4.15;;
43048;SDS011;28673;44.412;11.918;2023-07-31T03:54:17;5.75;;;3.60;;
43048;SDS011;28673;44.412;11.918;2023-07-31T03:56:46;6.70;;;3.35;;
43048;SDS011;28673;44.412;11.918;2023-07-31T03:59:12;5.53;;;3.45;;
43048;SDS011;28673;44.412;11.918;2023-07-31T04:01:38;6.00;;;3.67;;
43048;SDS011;28673;44.412;11.918;2023-07-31T04:04:04;11.55;;;3.72;;
43048;SDS011;28673;44.412;11.918;2023-07-31T04:06:30;5.82;;;3.08;;
43048;SDS011;28673;44.412;11.918;2023-07-31T04:09:01;7.93;;;3.42;;
43048;SDS011;28673;44.412;11.918;2023-07-31T04:11:28;5.03;;;3.70;;
43048;SDS011;28673;44.412;11.918;2023-07-31T04:13:55;16.30;;;4.25;;
43048;SDS011;28673;44.412;11.918;2023-07-31T04:16:23;3.78;;;2.92;;
43048;SDS011;28673;44.412;11.918;2023-07-31T04:18:50;10.35;;;3.65;;
43048;SDS011;28673;44.412;11.918;2023-07-31T04:21:16;5.93;;;3.78;;
43048;SDS011;28673;44.412;11.918;2023-07-31T04:23:43;8.70;;;3.47;;
43048;SDS011;28673;44.412;11.918;2023-07-31T04:26:09;6.75;;;3.58;;
43048;SDS011;28673;44.412;11.918;2023-07-31T04:28:36;9.48;;;3.67;;
43048;SDS011;28673;44.412;11.918;2023-07-31T04:31:02;5.07;;;3.40;;
43048;SDS011;28673;44.412;11.918;2023-07-31T04:33:29;9.48;;;4.13;;
43048;SDS011;28673;44.412;11.918;2023-07-31T04:35:55;4.45;;;3.78;;
43048;SDS011;28673;44.412;11.918;2023-07-31T04:38:21;4.22;;;3.60;;
43048;SDS011;28673;44.412;11.918;2023-07-31T04:40:48;6.05;;;3.40;;
43048;SDS011;28673;44.412;11.918;2023-07-31T04:43:15;7.95;;;4.03;;
43048;SDS011;28673;44.412;11.918;2023-07-31T04:45:47;7.03;;;3.65;;
43048;SDS011;28673;44.412;11.918;2023-07-31T04:48:15;10.73;;;4.28;;
43048;SDS011;28673;44.412;11.918;2023-07-31T04:50:43;6.07;;;3.30;;
43048;SDS011;28673;44.412;11.918;2023-07-31T04:53:10;10.68;;;3.60;;
43048;SDS011;28673;44.412;11.918;2023-07-31T04:55:37;4.68;;;3.38;;
43048;SDS011;28673;44.412;11.918;2023-07-31T04:58:03;7.55;;;3.55;;
43048;SDS011;28673;44.412;11.918;2023-07-31T05:00:32;5.90;;;3.20;;
43048;SDS011;28673;44.412;11.918;2023-07-31T05:02:58;6.32;;;3.75;;
43048;SDS011;28673;44.412;11.918;2023-07-31T05:05:25;5.43;;;3.30;;
43048;SDS011;28673;44.412;11.918;2023-07-31T05:07:52;5.80;;;3.40;;
43048;SDS011;28673;44.412;11.918;2023-07-31T05:10:20;12.77;;;4.50;;
43048;SDS011;28673;44.412;11.918;2023-07-31T05:12:47;9.68;;;3.67;;
43048;SDS011;28673;44.412;11.918;2023-07-31T05:15:13;8.10;;;4.15;;
43048;SDS011;28673;44.412;11.918;2023-07-31T05:17:41;6.90;;;3.85;;
43048;SDS011;28673;44.412;11.918;2023-07-31T05:20:07;5.85;;;3.97;;
43048;SDS011;28673;44.412;11.918;2023-07-31T05:22:36;6.97;;;4.03;;
43048;SDS011;28673;44.412;11.918;2023-07-31T05:25:03;9.25;;;5.65;;
43048;SDS011;28673;44.412;11.918;2023-07-31T05:27:31;7.07;;;3.72;;
43048;SDS011;28673;44.412;11.918;2023-07-31T05:30:00;6.95;;;4.10;;
43048;SDS011;28673;44.412;11.918;2023-07-31T05:32:26;11.57;;;4.80;;
43048;SDS011;28673;44.412;11.918;2023-07-31T05:34:55;7.47;;;5.25;;
43048;SDS011;28673;44.412;11.918;2023-07-31T05:37:23;15.55;;;5.25;;
43048;SDS011;28673;44.412;11.918;2023-07-31T05:39:49;10.60;;;4.25;;
43048;SDS011;28673;44.412;11.918;2023-07-31T05:42:16;5.47;;;3.88;;
43048;SDS011;28673;44.412;11.918;2023-07-31T05:44:43;9.73;;;4.43;;
43048;SDS011;28673;44.412;11.918;2023-07-31T05:47:09;8.25;;;4.68;;
43048;SDS011;28673;44.412;11.918;2023-07-31T05:49:45;5.68;;;4.22;;
43048;SDS011;28673;44.412;11.918;2023-07-31T05:52:14;7.40;;;4.15;;
43048;SDS011;28673;44.412;11.918;2023-07-31T05:54:45;6.85;;;4.70;;
43048;SDS011;28673;44.412;11.918;2023-07-31T05:57:11;10.65;;;5.32;;
43048;SDS011;28673;44.412;11.918;2023-07-31T05:59:38;8.57;;;5.45;;
43048;SDS011;28673;44.412;11.918;2023-07-31T06:02:04;7.57;;;5.15;;
43048;SDS011;28673;44.412;11.918;2023-07-31T06:04:34;9.32;;;5.22;;
43048;SDS011;28673;44.412;11.918;2023-07-31T06:07:02;11.18;;;5.75;;
43048;SDS011;28673;44.412;11.918;2023-07-31T06:09:29;7.30;;;5.10;;
43048;SDS011;28673;44.412;11.918;2023-07-31T06:11:55;18.02;;;6.85;;
43048;SDS011;28673;44.412;11.918;2023-07-31T06:14:22;15.15;;;7.10;;
43048;SDS011;28673;44.412;11.918;2023-07-31T06:16:51;6.40;;;4.97;;
43048;SDS011;28673;44.412;11.918;2023-07-31T06:19:17;10.70;;;5.88;;
43048;SDS011;28673;44.412;11.918;2023-07-31T06:21:45;8.55;;;4.47;;
43048;SDS011;28673;44.412;11.918;2023-07-31T06:24:12;14.30;;;6.00;;
43048;SDS011;28673;44.412;11.918;2023-07-31T06:26:38;8.82;;;4.70;;
43048;SDS011;28673;44.412;11.918;2023-07-31T06:29:05;14.13;;;6.85;;
43048;SDS011;28673;44.412;11.918;2023-07-31T06:31:34;12.05;;;6.60;;
43048;SDS011;28673;44.412;11.918;2023-07-31T06:34:00;12.45;;;6.63;;
43048;SDS011;28673;44.412;11.918;2023-07-31T06:36:29;11.80;;;4.47;;
43048;SDS011;28673;44.412;11.918;2023-07-31T06:38:56;12.93;;;5.38;;
43048;SDS011;28673;44.412;11.918;2023-07-31T06:41:22;15.65;;;6.90;;
43048;SDS011;28673;44.412;11.918;2023-07-31T06:43:48;11.48;;;6.28;;
43048;SDS011;28673;44.412;11.918;2023-07-31T06:46:17;12.52;;;4.65;;
43048;SDS011;28673;44.412;11.918;2023-07-31T06:48:44;6.97;;;4.93;;
43048;SDS011;28673;44.412;11.918;2023-07-31T06:51:11;12.52;;;4.75;;
43048;SDS011;28673;44.412;11.918;2023-07-31T06:53:37;6.38;;;4.80;;
43048;SDS011;28673;44.412;11.918;2023-07-31T06:56:04;15.25;;;4.88;;
43048;SDS011;28673;44.412;11.918;2023-07-31T06:58:32;8.35;;;3.97;;
43048;SDS011;28673;44.412;11.918;2023-07-31T07:01:01;11.68;;;4.22;;
43048;SDS011;28673;44.412;11.918;2023-07-31T07:03:28;7.75;;;3.70;;
43048;SDS011;28673;44.412;11.918;2023-07-31T07:05:55;4.90;;;4.10;;
43048;SDS011;28673;44.412;11.918;2023-07-31T07:08:21;8.65;;;4.07;;
43048;SDS011;28673;44.412;11.918;2023-07-31T07:10:50;10.40;;;3.63;;
43048;SDS011;28673;44.412;11.918;2023-07-31T07:13:17;8.60;;;2.90;;
43048;SDS011;28673;44.412;11.918;2023-07-31T07:15:47;4.75;;;2.70;;
43048;SDS011;28673;44.412;11.918;2023-07-31T07:18:16;5.13;;;3.42;;
43048;SDS011;28673;44.412;11.918;2023-07-31T07:20:46;4.97;;;3.28;;
43048;SDS011;28673;44.412;11.918;2023-07-31T07:23:18;8.27;;;3.58;;
43048;SDS011;28673;44.412;11.918;2023-07-31T07:25:45;4.40;;;3.15;;
43048;SDS011;28673;44.412;11.918;2023-07-31T07:28:14;6.13;;;3.50;;
43048;SDS011;28673;44.412;11.918;2023-07-31T07:30:40;8.15;;;2.63;;
43048;SDS011;28673;44.412;11.918;2023-07-31T07:33:09;8.63;;;2.75;;
43048;SDS011;28673;44.412;11.918;2023-07-31T07:35:35;8.93;;;3.30;;
43048;SDS011;28673;44.412;11.918;2023-07-31T07:38:02;10.57;;;4.38;;
43048;SDS011;28673;44.412;11.918;2023-07-31T07:40:29;8.23;;;4.72;;
43048;SDS011;28673;44.412;11.918;2023-07-31T07:42:55;5.25;;;3.42;;
43048;SDS011;28673;44.412;11.918;2023-07-31T07:45:24;4.13;;;2.97;;
43048;SDS011;28673;44.412;11.918;2023-07-31T07:47:50;7.30;;;2.50;;
43048;SDS011;28673;44.412;11.918;2023-07-31T07:50:16;3.53;;;2.72;;
43048;SDS011;28673;44.412;11.918;2023-07-31T07:52:42;6.75;;;2.92;;
43048;SDS011;28673;44.412;11.918;2023-07-31T07:55:11;5.22;;;3.03;;
43048;SDS011;28673;44.412;11.918;2023-07-31T07:57:38;6.35;;;2.80;;
43048;SDS011;28673;44.412;11.918;2023-07-31T08:00:07;3.13;;;2.35;;
43048;SDS011;28673;44.412;11.918;2023-07-31T08:02:41;5.28;;;2.60;;
43048;SDS011;28673;44.412;11.918;2023-07-31T08:05:08;7.45;;;2.47;;
43048;SDS011;28673;44.412;11.918;2023-07-31T08:07:34;2.75;;;2.20;;
43048;SDS011;28673;44.412;11.918;2023-07-31T08:10:00;3.60;;;2.67;;
43048;SDS011;28673;44.412;11.918;2023-07-31T08:12:27;7.53;;;2.30;;
43048;SDS011;28673;44.412;11.918;2023-07-31T08:14:53;5.18;;;2.60;;
43048;SDS011;28673;44.412;11.918;2023-07-31T08:17:19;5.40;;;2.20;;
43048;SDS011;28673;44.412;11.918;2023-07-31T08:19:45;12.73;;;2.72;;
43048;SDS011;28673;44.412;11.918;2023-07-31T08:22:11;4.07;;;2.50;;
43048;SDS011;28673;44.412;11.918;2023-07-31T08:24:37;5.88;;;2.38;;
43048;SDS011;28673;44.412;11.918;2023-07-31T08:27:03;3.55;;;2.38;;
43048;SDS011;28673;44.412;11.918;2023-07-31T08:29:31;4.97;;;2.28;;
43048;SDS011;28673;44.412;11.918;2023-07-31T08:31:57;2.33;;;2.10;;
43048;SDS011;28673;44.412;11.918;2023-07-31T08:34:23;3.50;;;2.42;;
43048;SDS011;28673;44.412;11.918;2023-07-31T08:36:49;4.95;;;2.38;;
43048;SDS011;28673;44.412;11.918;2023-07-31T08:39:15;4.70;;;2.08;;
43048;SDS011;28673;44.412;11.918;2023-07-31T08:41:41;4.00;;;2.22;;
43048;SDS011;28673;44.412;11.918;2023-07-31T08:44:08;4.30;;;2.22;;
43048;SDS011;28673;44.412;11.918;2023-07-31T08:46:36;4.65;;;2.03;;
43048;SDS011;28673;44.412;11.918;2023-07-31T08:49:06;3.08;;;1.90;;
43048;SDS011;28673;44.412;11.918;2023-07-31T08:51:34;4.32;;;2.17;;
43048;SDS011;28673;44.412;11.918;2023-07-31T08:54:01;3.50;;;1.88;;
43048;SDS011;28673;44.412;11.918;2023-07-31T08:56:31;4.63;;;1.90;;
43048;SDS011;28673;44.412;11.918;2023-07-31T08:58:58;2.67;;;1.90;;
43048;SDS011;28673;44.412;11.918;2023-07-31T09:01:27;2.28;;;1.95;;
43048;SDS011;28673;44.412;11.918;2023-07-31T09:04:00;3.40;;;2.15;;
43048;SDS011;28673;44.412;11.918;2023-07-31T09:06:27;2.42;;;1.63;;
43048;SDS011;28673;44.412;11.918;2023-07-31T09:08:58;3.25;;;1.50;;
43048;SDS011;28673;44.412;11.918;2023-07-31T09:11:27;2.08;;;1.60;;
43048;SDS011;28673;44.412;11.918;2023-07-31T09:13:56;3.63;;;1.85;;
43048;SDS011;28673;44.412;11.918;2023-07-31T09:16:27;2.50;;;1.50;;
43048;SDS011;28673;44.412;11.918;2023-07-31T09:18:56;9.57;;;2.42;;
43048;SDS011;28673;44.412;11.918;2023-07-31T09:21:24;3.42;;;1.50;;
43048;SDS011;28673;44.412;11.918;2023-07-31T09:23:53;5.18;;;1.90;;
43048;SDS011;28673;44.412;11.918;2023-07-31T09:26:29;5.88;;;1.50;;
43048;SDS011;28673;44.412;11.918;2023-07-31T09:29:18;5.20;;;2.03;;
43048;SDS011;28673;44.412;11.918;2023-07-31T09:31:45;3.08;;;2.08;;
43048;SDS011;28673;44.412;11.918;2023-07-31T09:34:12;2.35;;;1.65;;
43048;SDS011;28673;44.412;11.918;2023-07-31T09:36:43;2.30;;;1.63;;
43048;SDS011;28673;44.412;11.918;2023-07-31T09:39:11;2.70;;;1.27;;
43048;SDS011;28673;44.412;11.918;2023-07-31T09:41:40;6.72;;;1.65;;
43048;SDS011;28673;44.412;11.918;2023-07-31T09:44:14;3.17;;;1.58;;
43048;SDS011;28673;44.412;11.918;2023-07-31T09:46:40;3.40;;;2.03;;
43048;SDS011;28673;44.412;11.918;2023-07-31T09:49:11;3.72;;;1.65;;
43048;SDS011;28673;44.412;11.918;2023-07-31T09:51:38;3.83;;;2.10;;
43048;SDS011;28673;44.412;11.918;2023-07-31T09:54:10;2.22;;;1.35;;
43048;SDS011;28673;44.412;11.918;2023-07-31T09:56:43;3.05;;;1.67;;
43048;SDS011;28673;44.412;11.918;2023-07-31T09:59:11;3.78;;;1.65;;
43048;SDS011;28673;44.412;11.918;2023-07-31T10:01:39;2.35;;;1.55;;
43048;SDS011;28673;44.412;11.918;2023-07-31T10:04:07;10.10;;;3.05;;
43048;SDS011;28673;44.412;11.918;2023-07-31T10:06:35;6.43;;;1.58;;
43048;SDS011;28673;44.412;11.918;2023-07-31T10:09:02;2.45;;;1.35;;
43048;SDS011;28673;44.412;11.918;2023-07-31T10:11:41;2.88;;;1.42;;
43048;SDS011;28673;44.412;11.918;2023-07-31T10:14:15;5.05;;;1.83;;
43048;SDS011;28673;44.412;11.918;2023-07-31T10:16:46;5.20;;;1.75;;
43048;SDS011;28673;44.412;11.918;2023-07-31T10:19:13;2.25;;;1.95;;
43048;SDS011;28673;44.412;11.918;2023-07-31T10:21:39;4.38;;;1.67;;
43048;SDS011;28673;44.412;11.918;2023-07-31T10:24:07;3.60;;;1.70;;
43048;SDS011;28673;44.412;11.918;2023-07-31T10:26:34;2.20;;;1.60;;
43048;SDS011;28673;44.412;11.918;2023-07-31T10:29:03;5.35;;;1.75;;
43048;SDS011;28673;44.412;11.918;2023-07-31T10:31:29;2.17;;;1.25;;
43048;SDS011;28673;44.412;11.918;2023-07-31T10:33:56;3.25;;;2.13;;
43048;SDS011;28673;44.412;11.918;2023-07-31T10:36:24;6.80;;;1.73;;
43048;SDS011;28673;44.412;11.918;2023-07-31T10:38:54;1.95;;;1.48;;
43048;SDS011;28673;44.412;11.918;2023-07-31T10:41:28;1.73;;;1.55;;
43048;SDS011;28673;44.412;11.918;2023-07-31T10:44:02;3.15;;;1.90;;
43048;SDS011;28673;44.412;11.918;2023-07-31T10:46:32;5.88;;;2.50;;
43048;SDS011;28673;44.412;11.918;2023-07-31T10:48:58;2.22;;;1.80;;
43048;SDS011;28673;44.412;11.918;2023-07-31T10:51:32;4.10;;;2.13;;
43048;SDS011;28673;44.412;11.918;2023-07-31T10:54:12;3.83;;;1.83;;
43048;SDS011;28673;44.412;11.918;2023-07-31T10:56:44;3.97;;;1.70;;
43048;SDS011;28673;44.412;11.918;2023-07-31T10:59:11;2.63;;;1.60;;
43048;SDS011;28673;44.412;11.918;2023-07-31T11:01:54;2.75;;;1.45;;
43048;SDS011;28673;44.412;11.918;2023-07-31T11:04:27;2.55;;;1.60;;
43048;SDS011;28673;44.412;11.918;2023-07-31T11:06:56;2.95;;;1.58;;
43048;SDS011;28673;44.412;11.918;2023-07-31T11:09:24;4.10;;;2.03;;
43048;SDS011;28673;44.412;11.918;2023-07-31T11:11:58;5.28;;;2.55;;
43048;SDS011;28673;44.412;11.918;2023-07-31T11:14:25;2.35;;;1.67;;
43048;SDS011;28673;44.412;11.918;2023-07-31T11:16:51;2.30;;;1.67;;
43048;SDS011;28673;44.412;11.918;2023-07-31T11:19:23;4.30;;;1.60;;
43048;SDS011;28673;44.412;11.918;2023-07-31T11:21:50;1.92;;;1.80;;
43048;SDS011;28673;44.412;11.918;2023-07-31T11:24:18;4.85;;;1.77;;
43048;SDS011;28673;44.412;11.918;2023-07-31T11:26:51;1.98;;;1.60;;
43048;SDS011;28673;44.412;11.918;2023-07-31T11:29:18;4.55;;;1.85;;
43048;SDS011;28673;44.412;11.918;2023-07-31T11:31:44;4.13;;;1.65;;
43048;SDS011;28673;44.412;11.918;2023-07-31T11:34:12;2.50;;;1.75;;
43048;SDS011;28673;44.412;11.918;2023-07-31T11:36:38;3.25;;;1.70;;
43048;SDS011;28673;44.412;11.918;2023-07-31T11:39:07;1.80;;;1.20;;
43048;SDS011;28673;44.412;11.918;2023-07-31T11:41:36;3.20;;;1.50;;
43048;SDS011;28673;44.412;11.918;2023-07-31T11:44:06;3.85;;;1.58;;
43048;SDS011;28673;44.412;11.918;2023-07-31T11:46:32;7.82;;;1.92;;
43048;SDS011;28673;44.412;11.918;2023-07-31T11:49:01;2.55;;;2.03;;
43048;SDS011;28673;44.412;11.918;2023-07-31T11:51:27;1.50;;;1.40;;
43048;SDS011;28673;44.412;11.918;2023-07-31T11:53:56;4.13;;;1.55;;
43048;SDS011;28673;44.412;11.918;2023-07-31T11:56:23;2.03;;;1.70;;
43048;SDS011;28673;44.412;11.918;2023-07-31T11:58:58;2.85;;;1.90;;
43048;SDS011;28673;44.412;11.918;2023-07-31T12:01:27;2.53;;;1.70;;
43048;SDS011;28673;44.412;11.918;2023-07-31T12:03:54;3.08;;;1.48;;
43048;SDS011;28673;44.412;11.918;2023-07-31T12:06:20;2.17;;;1.73;;
43048;SDS011;28673;44.412;11.918;2023-07-31T12:08:47;5.63;;;1.50;;
43048;SDS011;28673;44.412;11.918;2023-07-31T12:11:13;3.33;;;1.88;;
43048;SDS011;28673;44.412;11.918;2023-07-31T12:13:40;5.82;;;1.30;;
43048;SDS011;28673;44.412;11.918;2023-07-31T12:16:06;5.72;;;1.70;;
43048;SDS011;28673;44.412;11.918;2023-07-31T12:18:36;1.77;;;1.35;;
43048;SDS011;28673;44.412;11.918;2023-07-31T12:21:08;4.82;;;2.15;;
43048;SDS011;28673;44.412;11.918;2023-07-31T12:23:37;5.13;;;1.80;;
43048;SDS011;28673;44.412;11.918;2023-07-31T12:26:15;1.83;;;1.65;;
43048;SDS011;28673;44.412;11.918;2023-07-31T12:28:42;2.40;;;1.80;;
43048;SDS011;28673;44.412;11.918;2023-07-31T12:31:10;4.05;;;2.00;;
43048;SDS011;28673;44.412;11.918;2023-07-31T12:33:38;1.67;;;1.58;;
43048;SDS011;28673;44.412;11.918;2023-07-31T12:36:09;1.90;;;1.60;;
43048;SDS011;28673;44.412;11.918;2023-07-31T12:38:36;2.83;;;1.58;;
43048;SDS011;28673;44.412;11.918;2023-07-31T12:41:02;2.13;;;1.67;;
43048;SDS011;28673;44.412;11.918;2023-07-31T12:43:29;2.60;;;1.60;;
43048;SDS011;28673;44.412;11.918;2023-07-31T12:45:55;1.60;;;1.50;;
43048;SDS011;28673;44.412;11.918;2023-07-31T12:48:21;2.88;;;1.52;;
43048;SDS011;28673;44.412;11.918;2023-07-31T12:50:47;3.38;;;1.63;;
43048;SDS011;28673;44.412;11.918;2023-07-31T12:53:14;1.95;;;1.70;;
43048;SDS011;28673;44.412;11.918;2023-07-31T12:55:41;3.28;;;1.65;;
43048;SDS011;28673;44.412;11.918;2023-07-31T12:58:06;5.28;;;1.40;;
43048;SDS011;28673;44.412;11.918;2023-07-31T13:00:33;4.18;;;1.40;;
43048;SDS011;28673;44.412;11.918;2023-07-31T13:02:59;1.95;;;1.70;;
43048;SDS011;28673;44.412;11.918;2023-07-31T13:05:25;1.75;;;1.55;;
43048;SDS011;28673;44.412;11.918;2023-07-31T13:07:52;5.85;;;1.25;;
43048;SDS011;28673;44.412;11.918;2023-07-31T13:10:18;3.42;;;1.90;;
43048;SDS011;28673;44.412;11.918;2023-07-31T13:12:44;2.47;;;1.30;;
43048;SDS011;28673;44.412;11.918;2023-07-31T13:15:10;2.13;;;1.40;;
43048;SDS011;28673;44.412;11.918;2023-07-31T13:17:36;2.05;;;1.50;;
43048;SDS011;28673;44.412;11.918;2023-07-31T13:20:02;1.60;;;1.50;;
43048;SDS011;28673;44.412;11.918;2023-07-31T13:22:30;4.00;;;1.38;;
43048;SDS011;28673;44.412;11.918;2023-07-31T13:24:56;3.92;;;1.40;;
43048;SDS011;28673;44.412;11.918;2023-07-31T13:27:22;2.88;;;1.80;;
43048;SDS011;28673;44.412;11.918;2023-07-31T13:29:48;2.55;;;1.40;;
43048;SDS011;28673;44.412;11.918;2023-07-31T13:32:15;4.75;;;1.40;;
43048;SDS011;28673;44.412;11.918;2023-07-31T13:34:42;3.20;;;1.58;;
43048;SDS011;28673;44.412;11.918;2023-07-31T13:37:08;2.55;;;1.50;;
43048;SDS011;28673;44.412;11.918;2023-07-31T13:39:34;5.32;;;2.95;;
43048;SDS011;28673;44.412;11.918;2023-07-31T13:42:03;8.32;;;1.83;;
43048;SDS011;28673;44.412;11.918;2023-07-31T13:44:32;5.20;;;1.58;;
43048;SDS011;28673;44.412;11.918;2023-07-31T13:46:59;2.90;;;1.52;;
43048;SDS011;28673;44.412;11.918;2023-07-31T13:49:28;2.88;;;1.30;;
43048;SDS011;28673;44.412;11.918;2023-07-31T13:51:55;5.22;;;1.65;;
43048;SDS011;28673;44.412;11.918;2023-07-31T13:54:22;5.03;;;1.90;;
43048;SDS011;28673;44.412;11.918;2023-07-31T13:56:50;1.63;;;1.52;;
43048;SDS011;28673;44.412;11.918;2023-07-31T13:59:20;2.00;;;1.52;;
43048;SDS011;28673;44.412;11.918;2023-07-31T14:01:46;2.80;;;1.30;;
43048;SDS011;28673;44.412;11.918;2023-07-31T14:04:13;1.55;;;1.45;;
43048;SDS011;28673;44.412;11.918;2023-07-31T14:06:39;2.15;;;1.67;;
43048;SDS011;28673;44.412;11.918;2023-07-31T14:09:05;3.00;;;1.52;;
43048;SDS011;28673;44.412;11.918;2023-07-31T14:11:34;2.22;;;1.55;;
43048;SDS011;28673;44.412;11.918;2023-07-31T14:14:00;1.70;;;1.60;;
43048;SDS011;28673;44.412;11.918;2023-07-31T14:16:29;2.85;;;1.45;;
43048;SDS011;28673;44.412;11.918;2023-07-31T14:18:56;3.10;;;1.70;;
43048;SDS011;28673;44.412;11.918;2023-07-31T14:21:24;2.00;;;1.48;;
43048;SDS011;28673;44.412;11.918;2023-07-31T14:23:51;3.03;;;1.60;;
43048;SDS011;28673;44.412;11.918;2023-07-31T14:26:17;1.65;;;1.40;;
43048;SDS011;28673;44.412;11.918;2023-07-31T14:28:44;5.68;;;1.60;;
43048;SDS011;28673;44.412;11.918;2023-07-31T14:31:10;1.65;;;1.23;;
43048;SDS011;28673;44.412;11.918;2023-07-31T14:33:36;1.65;;;1.38;;
43048;SDS011;28673;44.412;11.918;2023-07-31T14:36:02;2.03;;;1.58;;
43048;SDS011;28673;44.412;11.918;2023-07-31T14:38:30;2.03;;;1.40;;
43048;SDS011;28673;44.412;11.918;2023-07-31T14:40:56;3.72;;;1.65;;
43048;SDS011;28673;44.412;11.918;2023-07-31T14:43:22;1.88;;;1.40;;
43048;SDS011;28673;44.412;11.918;2023-07-31T14:45:48;3.03;;;1.75;;
43048;SDS011;28673;44.412;11.918;2023-07-31T14:48:14;1.65;;;1.20;;